Hopkins Park, Illinois
Current Conditions -  °F | °C
As of 8:15 AM on Friday 19 Dec 2014 (Local Time) from KIKK Reporting Station
Overcast Overcast  
Wind Chill: 26°   Ceiling: 2900
Heat Index: 26°   Visibility: 10mi
Dew Point: 22°   Wind: 3mph
Humidity: 88%   Direction: 260°W
Pressure: 30.3"   Gusts: NA
Location:  41.06°N, 87.63°W
Report Text: KIKK 191415Z AUTO 26003KT 10SM OVC029 M04/M05 A3030 RMK AO2 T10361053
Loading
Personal Weather Stations






























Interactive Weather Map New forecast layout! Learn more

10-Day Weather Forecast

Advertisements
Track Severe Weather on mobile